Time;durP1;ratioP1;P1;durP2;ratioP2;P2;SDS_P1;SDS_P2;PMS_P1;PMS_P2;Temp;Humidity;BMP_temperature;BMP_pressure;BME280_temperature;BME280_humidity;BME280_pressure;Samples;Min_cycle;Max_cycle;Signal;HPM_P1;HPM_P2
2024/03/01 00:01:16;;;;;;;11.57;8.43;;;;;;;-146.27;94.45;42906.22;5067410;28;20512;-74
2024/03/01 00:03:42;;;;;;;12.98;8.57;;;;;;;-146.27;93.74;42868.41;5067836;28;20024;-73
2024/03/01 00:06:07;;;;;;;11.93;8.73;;;;;;;-146.27;94.13;42908.19;5067830;28;20024;-74
2024/03/01 00:08:32;;;;;;;12.85;9.18;;;;;;;-146.27;94.50;42906.22;5067467;28;20025;-73
2024/03/01 00:10:58;;;;;;;9.55;7.55;;;;;;;-146.27;94.02;42930.09;5068383;28;20021;-73
2024/03/01 00:13:23;;;;;;;11.23;8.02;;;;;;;-146.27;94.66;42886.31;5068650;28;20029;-73
2024/03/01 00:15:48;;;;;;;13.38;8.32;;;;;;;-146.27;93.92;42930.09;5069153;28;20035;-73
2024/03/01 00:18:14;;;;;;;10.95;8.10;;;;;;;-146.27;94.03;42894.28;5067294;28;20028;-71
2024/03/01 00:20:39;;;;;;;11.68;8.63;;;;;;;-146.27;93.61;42914.16;5067360;28;20645;-70
2024/03/01 00:23:04;;;;;;;10.88;8.07;;;;;;;-146.27;93.63;42850.53;5068993;28;20349;-71
2024/03/01 00:25:30;;;;;;;10.93;8.20;;;;;;;-146.27;93.69;42888.31;5068202;28;20027;-73
2024/03/01 00:27:55;;;;;;;10.43;8.10;;;;;;;-146.27;93.48;42900.25;5069341;28;20042;-70
2024/03/01 00:30:21;;;;;;;10.95;9.05;;;;;;;-146.27;93.44;42938.03;5068031;28;20402;-72
2024/03/01 00:32:46;;;;;;;11.65;8.85;;;;;;;-146.27;93.39;42882.34;5068229;28;20393;-72
2024/03/01 00:35:12;;;;;;;13.10;8.88;;;;;;;-146.27;93.22;42934.06;5068421;28;20027;-70
2024/03/01 00:37:37;;;;;;;14.23;9.02;;;;;;;-146.27;93.21;42902.22;5059592;28;20013;-72
2024/03/01 00:40:03;;;;;;;10.93;9.05;;;;;;;-146.27;93.21;42947.97;5060182;28;20452;-72
2024/03/01 00:42:28;;;;;;;11.57;9.13;;;;;;;-146.27;93.08;42906.22;5062746;28;20070;-70
2024/03/01 00:44:53;;;;;;;14.63;8.70;;;;;;;-146.27;93.03;42938.03;5063788;28;20025;-73
2024/03/01 00:47:19;;;;;;;14.00;8.32;;;;;;;-146.27;93.27;42914.16;5067108;28;20028;-71
2024/03/01 00:49:45;;;;;;;9.55;8.20;;;;;;;-146.27;93.14;42981.78;5067409;28;20029;-73
2024/03/01 00:52:10;;;;;;;13.93;8.73;;;;;;;-146.27;93.19;42918.16;5069621;28;20034;-72
2024/03/01 00:54:35;;;;;;;11.57;9.10;;;;;;;-146.27;92.61;42914.16;5064541;28;20032;-72
2024/03/01 00:57:01;;;;;;;10.68;8.55;;;;;;;-146.27;92.59;42908.19;5067789;28;20052;-72
2024/03/01 00:59:26;;;;;;;11.77;8.23;;;;;;;-146.27;92.65;42872.41;5068269;28;20054;-72
2024/03/01 01:01:52;;;;;;;11.80;8.52;;;;;;;-146.27;93.06;42924.13;5066663;28;20028;-72
2024/03/01 01:04:17;;;;;;;12.30;7.75;;;;;;;-146.27;92.63;42942.00;5067694;28;20151;-71
2024/03/01 01:06:42;;;;;;;11.50;7.88;;;;;;;-146.27;92.63;42906.22;5066618;28;20074;-71
2024/03/01 01:09:08;;;;;;;9.98;7.53;;;;;;;-146.27;92.62;42912.19;5067719;28;20089;-72
2024/03/01 01:11:34;;;;;;;12.10;7.30;;;;;;;-146.27;92.27;42898.25;5059586;28;20028;-71
2024/03/01 01:13:59;;;;;;;10.20;7.80;;;;;;;-146.27;92.34;42914.16;5056175;28;20036;-74
2024/03/01 01:16:25;;;;;;;9.52;6.68;;;;;;;-146.27;92.26;42898.25;5067962;28;20104;-73
2024/03/01 01:18:51;;;;;;;7.93;6.78;;;;;;;-146.27;92.69;42949.97;5068211;28;20033;-72
2024/03/01 01:21:16;;;;;;;10.52;7.63;;;;;;;-146.27;92.51;42926.09;5067263;28;20536;-71
2024/03/01 01:23:41;;;;;;;10.20;6.90;;;;;;;-146.27;92.77;42993.72;5069376;28;20039;-72
2024/03/01 01:26:07;;;;;;;8.65;7.10;;;;;;;-146.27;92.33;42942.00;5068475;28;20602;-73
2024/03/01 01:28:33;;;;;;;11.55;6.85;;;;;;;-146.27;92.06;42910.19;5068424;28;20032;-73
2024/03/01 01:30:58;;;;;;;8.80;6.55;;;;;;;-146.27;92.47;42946.00;5067286;28;20032;-73
2024/03/01 01:33:24;;;;;;;10.13;6.68;;;;;;;-146.27;92.32;42944.00;5068832;28;20031;-73
2024/03/01 01:35:49;;;;;;;8.45;6.68;;;;;;;-146.27;92.42;42944.00;5068366;28;20025;-75
2024/03/01 01:38:16;;;;;;;8.38;7.13;;;;;;;-146.27;92.42;42961.91;5067783;28;20408;-73
2024/03/01 01:40:42;;;;;;;8.35;6.60;;;;;;;-146.27;92.54;42949.97;5068528;28;20025;-73
2024/03/01 01:43:07;;;;;;;7.20;6.45;;;;;;;-146.27;92.04;42886.31;5067707;28;20032;-73
2024/03/01 01:45:33;;;;;;;8.60;7.18;;;;;;;-146.27;92.11;42949.97;5063895;28;20028;-73
2024/03/01 01:47:59;;;;;;;8.23;6.75;;;;;;;-146.27;92.18;42949.97;5068196;28;20025;-73
2024/03/01 01:50:26;;;;;;;9.00;7.05;;;;;;;-146.27;92.68;43009.63;5070636;28;20499;-73
2024/03/01 01:52:52;;;;;;;8.60;6.70;;;;;;;-146.27;92.08;42957.94;5071111;28;20567;-73
2024/03/01 01:55:18;;;;;;;7.97;6.57;;;;;;;-146.27;91.90;42969.84;5070366;28;20506;-72
2024/03/01 01:57:46;;;;;;;8.18;6.38;;;;;;;-146.27;92.17;42940.03;5063001;28;20036;-73
2024/03/01 02:00:13;;;;;;;7.72;5.70;;;;;;;-146.27;92.20;42989.75;5059924;28;20037;-74
2024/03/01 02:02:40;;;;;;;8.43;6.68;;;;;;;-146.27;92.11;42981.78;5072556;28;20060;-73
2024/03/01 02:05:06;;;;;;;7.13;6.22;;;;;;;-146.27;91.69;42969.84;5070119;28;20033;-73
2024/03/01 02:07:32;;;;;;;9.77;6.80;;;;;;;-146.27;92.50;42999.69;5071461;28;20056;-74
2024/03/01 02:09:58;;;;;;;9.80;6.43;;;;;;;-146.27;93.10;43013.63;5071574;28;20063;-72
2024/03/01 02:12:23;;;;;;;6.70;5.90;;;;;;;-146.27;93.05;43059.38;5071399;28;20083;-73
2024/03/01 02:14:48;;;;;;;7.85;6.43;;;;;;;-146.27;94.03;43015.59;5071949;28;20029;-73
2024/03/01 02:17:14;;;;;;;8.55;6.50;;;;;;;-146.27;94.03;42975.81;5071274;28;20365;-73
2024/03/01 02:19:39;;;;;;;9.07;5.88;;;;;;;-146.27;94.70;43073.28;5071610;28;20032;-73
2024/03/01 02:22:24;;;;;;;4.00;2.90;;;;;;;-146.27;94.56;43298.06;5071630;28;20027;-73
2024/03/01 02:24:50;;;;;;;4.38;2.83;;;;;;;-146.27;95.73;43387.56;5071761;28;20043;-73
2024/03/01 02:27:15;;;;;;;8.35;1.40;;;;;;;-146.27;94.87;43626.28;5072335;28;20083;-73
2024/03/01 02:29:41;;;;;;;2.72;1.05;;;;;;;-146.27;95.01;43699.88;5071673;28;20423;-73
2024/03/01 02:32:06;;;;;;;7.60;2.13;;;;;;;-146.27;94.98;43689.94;5071353;28;20442;-73
2024/03/01 02:34:32;;;;;;;8.48;1.35;;;;;;;-146.27;95.79;43817.25;5071295;28;20031;-73
2024/03/01 02:36:57;;;;;;;6.88;1.20;;;;;;;-146.27;95.81;43823.22;5071590;28;20028;-73
2024/03/01 02:39:25;;;;;;;3.00;0.80;;;;;;;-146.27;96.44;43892.88;5075235;28;20019;-73
2024/03/01 02:41:50;;;;;;;3.38;0.73;;;;;;;-146.27;95.95;43920.72;5076427;28;20095;-72
2024/03/01 02:44:15;;;;;;;3.67;0.77;;;;;;;-146.27;95.98;43869.00;5071823;28;20138;-73
2024/03/01 02:46:41;;;;;;;2.10;0.98;;;;;;;-146.27;96.56;43900.81;5069645;28;20473;-73
2024/03/01 02:49:06;;;;;;;3.78;0.57;;;;;;;-146.27;96.44;43896.84;5071341;28;20068;-73
2024/03/01 02:51:32;;;;;;;8.02;1.98;;;;;;;-146.27;96.26;43908.78;5070582;28;20028;-74
2024/03/01 02:53:57;;;;;;;4.30;0.60;;;;;;;-146.27;96.54;43886.91;5071803;28;20429;-73
2024/03/01 02:56:23;;;;;;;3.65;0.60;;;;;;;-146.27;96.62;43898.84;5069467;28;20013;-73
2024/03/01 02:58:48;;;;;;;1.70;0.52;;;;;;;-146.27;96.05;43920.72;5061239;28;20029;-73
2024/03/01 03:01:14;;;;;;;6.57;0.47;;;;;;;-146.27;96.11;43914.75;5069690;28;20115;-73
2024/03/01 03:03:39;;;;;;;6.03;0.90;;;;;;;-146.27;96.49;43916.75;5070860;28;20032;-73
2024/03/01 03:06:05;;;;;;;6.72;0.60;;;;;;;-146.27;96.05;43924.69;5070416;28;20021;-74
2024/03/01 03:08:30;;;;;;;2.47;0.80;;;;;;;-146.27;96.18;43874.97;5071405;28;20442;-73
2024/03/01 03:10:55;;;;;;;17.48;0.88;;;;;;;-146.27;95.78;43920.72;5070467;28;20036;-73
2024/03/01 03:13:21;;;;;;;6.18;0.80;;;;;;;-146.27;94.97;43872.97;5069645;28;20103;-73
2024/03/01 03:15:47;;;;;;;4.60;0.70;;;;;;;-146.27;95.21;43876.94;5069035;28;20483;-73
2024/03/01 03:18:13;;;;;;;4.53;1.08;;;;;;;-146.27;94.94;43954.53;5070737;28;20028;-73
2024/03/01 03:20:39;;;;;;;2.53;0.73;;;;;;;-146.27;95.31;43968.47;5068267;28;20027;-74
2024/03/01 03:23:04;;;;;;;9.43;1.02;;;;;;;-146.27;95.21;43976.41;5070151;28;20124;-73
2024/03/01 03:25:30;;;;;;;5.13;0.85;;;;;;;-146.27;94.60;43936.63;5069410;28;20039;-72
2024/03/01 03:27:55;;;;;;;5.25;0.80;;;;;;;-146.27;94.36;43976.41;5070014;28;20097;-73
2024/03/01 03:30:20;;;;;;;5.43;0.80;;;;;;;-146.27;94.36;43936.63;5069978;28;20033;-73
2024/03/01 03:32:46;;;;;;;7.53;0.82;;;;;;;-146.27;93.82;43928.69;5070980;28;20055;-73
2024/03/01 03:35:12;;;;;;;10.68;1.02;;;;;;;-146.27;94.00;43938.63;5064098;28;20480;-73
2024/03/01 03:37:37;;;;;;;9.65;1.10;;;;;;;-146.27;93.44;43926.69;5066632;28;20032;-73
2024/03/01 03:40:14;;;;;;;3.38;0.75;;;;;;;-146.27;93.98;43908.78;5068910;28;20028;-74
2024/03/01 03:42:40;;;;;;;2.67;0.75;;;;;;;-146.27;93.92;43942.59;5070460;28;20060;-73
2024/03/01 03:45:07;;;;;;;4.30;0.60;;;;;;;-146.27;93.19;43886.91;5060029;28;20029;-73
2024/03/01 03:47:32;;;;;;;5.78;0.82;;;;;;;-146.27;92.84;43940.63;5069626;28;20074;-72
2024/03/01 03:49:59;;;;;;;8.77;1.00;;;;;;;-146.27;92.42;43892.88;5068414;28;20521;-72
2024/03/01 03:52:25;;;;;;;8.65;1.33;;;;;;;-146.27;92.63;43904.81;5068526;28;20024;-72
2024/03/01 03:54:50;;;;;;;3.17;0.68;;;;;;;-146.27;93.13;43968.47;5069545;28;20400;-72
2024/03/01 03:57:15;;;;;;;4.95;0.93;;;;;;;-146.27;93.14;43968.47;5061179;28;20274;-72
2024/03/01 03:59:41;;;;;;;8.45;1.23;;;;;;;-146.27;93.31;43928.69;5069646;28;20056;-72
2024/03/01 04:02:06;;;;;;;8.75;1.38;;;;;;;-146.27;93.59;43966.47;5069826;28;20035;-72
2024/03/01 04:04:32;;;;;;;6.13;0.95;;;;;;;-146.27;93.28;43948.56;5068690;28;20119;-72
2024/03/01 04:06:57;;;;;;;3.92;0.68;;;;;;;-146.27;92.85;43896.84;5068525;28;20020;-72
2024/03/01 04:09:23;;;;;;;5.70;0.90;;;;;;;-146.27;92.95;43940.63;5069379;28;20041;-72
2024/03/01 04:11:48;;;;;;;4.25;1.13;;;;;;;-146.27;92.12;43896.84;5068502;28;20028;-71
2024/03/01 04:14:14;;;;;;;8.00;1.02;;;;;;;-146.27;91.76;43896.84;5067580;28;20639;-71
2024/03/01 04:16:39;;;;;;;4.25;1.25;;;;;;;-146.27;91.70;43940.63;5069573;28;20056;-72
2024/03/01 04:19:08;;;;;;;5.18;1.13;;;;;;;-146.27;91.87;43968.47;5069226;28;20058;-72
2024/03/01 04:21:35;;;;;;;6.55;0.80;;;;;;;-146.27;91.77;43994.31;5069186;28;20020;-72
2024/03/01 04:24:06;;;;;;;4.85;0.82;;;;;;;-146.27;91.08;43992.34;5068633;28;20551;-72
2024/03/01 04:26:31;;;;;;;2.88;0.70;;;;;;;-146.27;91.26;44024.16;5069303;28;20121;-72
2024/03/01 04:28:57;;;;;;;2.38;0.90;;;;;;;-146.27;91.23;44000.28;5070018;28;20025;-72
2024/03/01 04:31:22;;;;;;;2.72;0.80;;;;;;;-146.27;90.68;43980.41;5068918;28;20020;-72
2024/03/01 04:33:47;;;;;;;3.72;1.25;;;;;;;-146.27;90.08;44016.22;5070028;28;20028;-72
2024/03/01 04:36:13;;;;;;;4.63;0.77;;;;;;;-146.27;90.45;44061.97;5069272;28;20093;-72
2024/03/01 04:38:38;;;;;;;3.42;0.85;;;;;;;-146.27;90.76;44059.97;5067738;28;20031;-72
2024/03/01 04:41:04;;;;;;;7.40;1.08;;;;;;;-146.27;89.93;44046.06;5068795;28;20064;-72
2024/03/01 04:43:30;;;;;;;3.63;1.02;;;;;;;-146.27;89.49;44020.19;5068891;28;20446;-72
2024/03/01 04:45:55;;;;;;;4.35;1.05;;;;;;;-146.27;89.67;44036.09;5067953;28;20064;-72
2024/03/01 04:48:20;;;;;;;5.43;1.30;;;;;;;-146.27;89.98;44022.19;5068961;28;20020;-72
2024/03/01 04:50:46;;;;;;;7.45;1.30;;;;;;;-146.27;89.74;44091.81;5069142;28;20723;-72
2024/03/01 04:53:11;;;;;;;4.28;0.88;;;;;;;-146.27;89.74;44044.06;5069956;28;20546;-72
2024/03/01 04:55:37;;;;;;;5.95;1.20;;;;;;;-146.27;89.37;44050.03;5067679;28;20506;-72
2024/03/01 04:58:03;;;;;;;3.85;1.13;;;;;;;-146.27;89.69;44079.88;5067339;28;20081;-73
2024/03/01 05:00:28;;;;;;;8.88;1.40;;;;;;;-146.27;89.88;44091.81;5068868;28;20125;-73
2024/03/01 05:02:57;;;;;;;6.80;1.40;;;;;;;-146.27;89.42;44052.03;5069727;28;20028;-73
2024/03/01 05:05:24;;;;;;;6.50;1.48;;;;;;;-146.27;89.98;44107.72;5067768;28;20362;-73
2024/03/01 05:07:50;;;;;;;2.55;1.00;;;;;;;-146.27;89.56;44059.97;5068381;28;20047;-74
2024/03/01 05:10:21;;;;;;;7.50;1.65;;;;;;;-146.27;89.33;44091.81;5068919;28;20020;-73
2024/03/01 05:12:47;;;;;;;7.65;2.10;;;;;;;-146.27;89.02;44127.63;5072529;28;20028;-74
2024/03/01 05:15:12;;;;;;;8.50;1.23;;;;;;;-146.27;89.12;44119.66;5067247;28;20048;-74
2024/03/01 05:17:40;;;;;;;7.22;1.98;;;;;;;-146.27;89.37;44125.63;5064181;28;20017;-74
2024/03/01 05:20:10;;;;;;;7.40;1.45;;;;;;;-146.27;89.08;44139.56;5064513;28;20560;-74
2024/03/01 05:22:38;;;;;;;6.80;1.48;;;;;;;-146.27;89.10;44161.44;5067989;28;20030;-74
2024/03/01 05:25:14;;;;;;;2.85;1.05;;;;;;;-146.27;89.09;44127.63;5071247;28;20082;-74
2024/03/01 05:27:44;;;;;;;3.50;1.05;;;;;;;-146.27;89.05;44163.44;5068814;28;20044;-73
2024/03/01 05:30:12;;;;;;;5.13;1.60;;;;;;;-146.27;89.21;44185.31;5067821;28;20036;-74
2024/03/01 05:32:48;;;;;;;2.50;1.20;;;;;;;-146.27;89.08;44209.19;5068711;28;20024;-74
2024/03/01 05:35:15;;;;;;;7.38;1.55;;;;;;;-146.27;89.67;44199.25;5071136;28;20027;-73
2024/03/01 05:37:41;;;;;;;6.80;1.40;;;;;;;-146.27;89.67;44203.22;5072448;28;20031;-74
2024/03/01 05:40:10;;;;;;;10.00;3.00;;;;;;;-146.27;89.51;44199.25;5072189;28;20032;-73
2024/03/01 05:42:39;;;;;;;9.85;2.30;;;;;;;-146.27;89.88;44243.03;5066658;28;20082;-73
2024/03/01 05:45:08;;;;;;;6.65;1.88;;;;;;;-146.27;89.84;44207.22;5070723;28;20031;-74
2024/03/01 05:47:38;;;;;;;6.30;1.80;;;;;;;-146.27;89.72;44258.94;5069648;28;20035;-73
2024/03/01 05:50:05;;;;;;;9.20;1.77;;;;;;;-146.27;89.81;44272.88;5071939;28;20032;-73
2024/03/01 05:52:33;;;;;;;2.38;1.60;;;;;;;-146.27;90.15;44278.84;5071300;28;20020;-74
2024/03/01 05:54:59;;;;;;;4.78;1.65;;;;;;;-146.27;89.39;44249.00;5069210;28;20036;-74
2024/03/01 05:57:25;;;;;;;5.55;1.50;;;;;;;-146.27;89.15;44282.81;5061734;28;20028;-74
2024/03/01 05:59:51;;;;;;;5.90;1.35;;;;;;;-146.27;89.05;44392.25;5071687;28;20082;-73
2024/03/01 06:02:17;;;;;;;12.23;1.90;;;;;;;-146.27;89.67;44350.47;5072862;28;20024;-73
2024/03/01 06:04:42;;;;;;;7.28;1.70;;;;;;;-146.27;89.16;44346.50;5072153;28;20504;-74
2024/03/01 06:07:08;;;;;;;3.00;1.40;;;;;;;-146.27;89.39;44406.19;5070669;28;20086;-72
2024/03/01 06:09:34;;;;;;;5.82;1.20;;;;;;;-146.27;89.21;44364.41;5070785;28;20417;-74
2024/03/01 06:11:59;;;;;;;8.45;1.58;;;;;;;-146.27;89.58;44414.13;5074655;28;20103;-74
2024/03/01 06:14:24;;;;;;;6.93;1.50;;;;;;;-146.27;89.72;44390.25;5072525;28;20032;-74
2024/03/01 06:16:51;;;;;;;6.43;1.30;;;;;;;-146.27;89.62;44430.06;5070498;28;20047;-73
2024/03/01 06:19:17;;;;;;;3.30;1.50;;;;;;;-146.27;89.98;44378.31;5069510;28;20086;-74
2024/03/01 06:21:42;;;;;;;3.70;1.80;;;;;;;-146.27;88.85;44426.06;5072338;28;20092;-73
2024/03/01 06:24:08;;;;;;;4.05;1.85;;;;;;;-146.27;88.41;44398.22;5072474;28;20063;-73
2024/03/01 06:26:34;;;;;;;5.55;1.30;;;;;;;-146.27;87.90;44408.16;5070311;28;20045;-74
2024/03/01 06:29:00;;;;;;;7.78;1.70;;;;;;;-146.27;88.92;44455.94;5064147;28;20031;-74
2024/03/01 06:31:25;;;;;;;2.50;1.50;;;;;;;-146.27;88.38;44430.06;5072424;28;20025;-73
2024/03/01 06:33:50;;;;;;;8.27;1.38;;;;;;;-146.27;88.63;44404.19;5064498;28;20032;-73
2024/03/01 06:36:16;;;;;;;3.47;1.67;;;;;;;-146.27;88.13;44428.06;5068400;28;20185;-75
2024/03/01 06:38:41;;;;;;;2.90;1.58;;;;;;;-146.27;88.26;44447.97;5071384;28;20055;-75
2024/03/01 06:41:08;;;;;;;8.70;2.20;;;;;;;-146.27;88.45;44442.00;5070583;28;20032;-74
2024/03/01 06:43:34;;;;;;;20.33;2.75;;;;;;;-146.27;88.10;44436.03;5066836;28;20103;-74
2024/03/01 06:46:07;;;;;;;9.70;1.95;;;;;;;-146.27;87.98;44473.84;5068927;28;20119;-75
2024/03/01 06:48:35;;;;;;;2.97;1.80;;;;;;;-146.27;88.57;44497.72;5070227;28;20500;-74
2024/03/01 06:51:00;;;;;;;4.68;2.08;;;;;;;-146.27;88.56;44420.09;5066227;28;20123;-74
2024/03/01 06:53:27;;;;;;;4.50;2.28;;;;;;;-146.27;89.05;44497.72;5068708;28;20533;-74
2024/03/01 06:55:52;;;;;;;12.77;2.80;;;;;;;-146.27;88.92;44447.97;5070910;28;20025;-74
2024/03/01 06:58:17;;;;;;;5.38;2.30;;;;;;;-146.27;88.83;44499.69;5071407;28;20398;-73
2024/03/01 07:00:46;;;;;;;7.95;2.42;;;;;;;-146.27;89.56;44477.81;5070565;28;20024;-73
2024/03/01 07:03:15;;;;;;;7.43;2.92;;;;;;;-146.27;89.65;44477.81;5071692;28;20100;-74
2024/03/01 07:05:41;;;;;;;7.43;2.65;;;;;;;-146.27;89.94;44541.47;5068296;28;20073;-73
2024/03/01 07:08:06;;;;;;;16.95;3.22;;;;;;;-146.27;90.56;44525.56;5071730;28;20526;-74
2024/03/01 07:10:32;;;;;;;7.53;3.38;;;;;;;-146.27;91.61;44587.25;5069688;28;20028;-73
2024/03/01 07:12:57;;;;;;;12.73;4.10;;;;;;;-146.27;90.81;44487.75;5071442;28;20089;-73
2024/03/01 07:15:23;;;;;;;8.35;3.15;;;;;;;-146.27;91.02;44553.41;5071297;28;20112;-73
2024/03/01 07:17:48;;;;;;;10.65;3.60;;;;;;;-146.27;90.41;44467.88;5069077;28;20035;-74
2024/03/01 07:20:14;;;;;;;6.43;2.92;;;;;;;-146.27;90.26;44469.84;5078132;28;20054;-73
2024/03/01 07:22:39;;;;;;;7.28;3.05;;;;;;;-146.27;89.58;44453.94;5077177;28;20384;-74
2024/03/01 07:25:05;;;;;;;9.52;3.08;;;;;;;-146.27;89.45;44517.59;5076224;28;20082;-75
2024/03/01 07:27:34;;;;;;;4.63;3.00;;;;;;;-146.27;89.45;44521.59;5071415;28;20041;-74
2024/03/01 07:29:59;;;;;;;8.45;3.17;;;;;;;-146.27;89.67;44551.44;5068544;28;20118;-74
2024/03/01 07:32:25;;;;;;;6.45;2.58;;;;;;;-146.27;89.18;44563.38;5068204;28;20055;-75
2024/03/01 07:34:50;;;;;;;8.63;3.28;;;;;;;-146.27;89.26;44567.34;5069892;28;20365;-74
2024/03/01 07:37:16;;;;;;;6.97;3.28;;;;;;;-146.27;88.78;44583.28;5075286;28;20032;-74
2024/03/01 07:39:41;;;;;;;8.25;4.07;;;;;;;-146.27;89.24;44631.03;5073157;28;20518;-74
2024/03/01 07:42:06;;;;;;;7.22;3.72;;;;;;;-146.27;88.63;44593.22;5076181;28;20419;-75
2024/03/01 07:44:33;;;;;;;8.48;3.67;;;;;;;-146.27;88.57;44605.16;5068348;28;20024;-74
2024/03/01 07:46:59;;;;;;;7.10;4.47;;;;;;;-146.27;87.93;44627.03;5068196;28;20505;-74
2024/03/01 07:49:25;;;;;;;7.32;4.18;;;;;;;-146.27;88.08;44623.06;5068198;28;20020;-74
2024/03/01 07:51:52;;;;;;;9.48;3.33;;;;;;;-146.27;87.68;44613.13;5067346;28;20086;-74
2024/03/01 07:54:18;;;;;;;12.15;4.20;;;;;;;-146.27;87.69;44605.16;5070612;28;20029;-73
2024/03/01 07:56:43;;;;;;;7.50;3.53;;;;;;;-146.27;87.64;44670.81;5069505;28;20020;-74
2024/03/01 07:59:09;;;;;;;13.57;4.82;;;;;;;-146.27;87.46;44650.94;5069410;28;20116;-75
2024/03/01 08:01:35;;;;;;;9.55;4.95;;;;;;;-146.27;88.42;44668.84;5069917;28;20074;-74
2024/03/01 08:04:00;;;;;;;12.88;5.35;;;;;;;-146.27;87.81;44710.63;5068866;28;20032;-73
2024/03/01 08:06:25;;;;;;;12.18;6.00;;;;;;;-146.27;87.51;44672.81;5068111;28;20051;-75
2024/03/01 08:08:51;;;;;;;13.50;5.05;;;;;;;-146.27;87.33;44696.69;5070678;28;20032;-73
2024/03/01 08:11:42;;;;;;;18.25;5.57;;;;;;;-146.27;86.64;44742.47;5063514;28;20028;-74
2024/03/01 08:14:32;;;;;;;11.60;5.60;;;;;;;-146.27;86.73;44736.50;5065877;28;20032;-73
2024/03/01 08:16:57;;;;;;;9.10;5.53;;;;;;;-146.27;86.43;44800.16;5063867;28;20700;-74
2024/03/01 08:19:40;;;;;;;10.88;5.38;;;;;;;-146.27;86.21;44782.25;5069006;28;20035;-74
2024/03/01 08:22:10;;;;;;;10.93;6.03;;;;;;;-146.27;86.01;44875.78;5069846;28;20077;-73
2024/03/01 08:24:38;;;;;;;15.90;6.47;;;;;;;-146.27;86.64;44845.94;5070428;28;20020;-72
2024/03/01 08:27:05;;;;;;;15.00;7.13;;;;;;;-146.27;85.80;44915.59;5069892;28;20044;-74
2024/03/01 08:29:32;;;;;;;12.43;6.85;;;;;;;-146.27;85.99;44859.88;5068877;28;20055;-74
2024/03/01 08:31:58;;;;;;;15.30;7.30;;;;;;;-146.27;84.96;44812.09;5069405;28;20055;-72
2024/03/01 08:34:31;;;;;;;19.13;7.65;;;;;;;-146.27;84.88;44843.94;5069978;28;20503;-73
2024/03/01 08:36:56;;;;;;;14.88;7.53;;;;;;;-146.27;84.53;44855.88;5055512;28;20055;-72
2024/03/01 08:39:24;;;;;;;13.88;7.75;;;;;;;-146.27;83.85;44786.25;5059847;28;20107;-73
2024/03/01 08:41:51;;;;;;;17.80;8.57;;;;;;;-146.27;83.89;44780.25;5069891;28;20029;-73
2024/03/01 08:44:49;;;;;;;17.92;8.25;;;;;;;-146.27;84.32;44824.03;5070374;28;20127;-73
2024/03/01 08:47:37;;;;;;;19.00;9.50;;;;;;;-146.27;84.36;44832.00;5060249;28;20024;-72
2024/03/01 08:50:40;;;;;;;17.05;8.50;;;;;;;-146.27;83.42;44784.25;5063425;28;20037;-72
2024/03/01 08:53:28;;;;;;;16.92;8.43;;;;;;;-146.27;83.95;44804.16;5069284;28;20086;-72
2024/03/01 08:55:54;;;;;;;14.30;8.35;;;;;;;-146.27;84.77;44919.56;5061444;28;20027;-72
2024/03/01 08:58:25;;;;;;;14.75;7.53;;;;;;;-146.27;84.82;44849.91;5065353;28;20294;-72
2024/03/01 09:00:55;;;;;;;15.07;8.43;;;;;;;-146.27;84.34;44887.72;5069073;28;20024;-70
2024/03/01 09:03:27;;;;;;;14.20;8.05;;;;;;;-146.27;84.18;44901.66;5067438;28;20056;-71
2024/03/01 09:05:55;;;;;;;13.15;7.70;;;;;;;-146.27;83.98;44839.97;5067330;28;20077;-71
2024/03/01 09:08:23;;;;;;;12.82;7.45;;;;;;;-146.27;83.31;44893.69;5068237;28;20031;-72
2024/03/01 09:10:53;;;;;;;14.02;7.85;;;;;;;-146.27;83.20;44855.88;5066919;28;20547;-73
2024/03/01 09:13:19;;;;;;;20.67;8.60;;;;;;;-146.27;83.45;44843.94;5067425;28;20071;-73
2024/03/01 09:15:45;;;;;;;18.58;7.88;;;;;;;-146.27;83.78;44943.44;5069671;28;20064;-73
2024/03/01 09:18:23;;;;;;;17.88;8.27;;;;;;;-146.27;83.60;44855.88;5067339;28;20028;-73
2024/03/01 09:20:49;;;;;;;13.55;8.27;;;;;;;-146.27;82.78;44875.78;5068573;28;20579;-71
2024/03/01 09:23:14;;;;;;;18.88;8.43;;;;;;;-146.27;84.34;44895.69;5059063;28;20032;-72
2024/03/01 09:25:51;;;;;;;18.52;8.85;;;;;;;-146.27;84.53;44899.66;5069833;28;20154;-72
2024/03/01 09:28:20;;;;;;;14.75;9.32;;;;;;;-146.27;83.41;44887.72;5067476;28;20454;-72
2024/03/01 09:30:47;;;;;;;14.38;7.75;;;;;;;-146.27;83.26;44919.56;5055850;28;20021;-73
2024/03/01 09:33:16;;;;;;;16.88;8.27;;;;;;;-146.27;83.24;44899.66;5064227;28;20033;-72
2024/03/01 09:35:42;;;;;;;16.77;9.07;;;;;;;-146.27;83.12;44903.66;5069420;28;20082;-73
2024/03/01 09:38:09;;;;;;;15.77;9.45;;;;;;;-146.27;82.54;44929.50;5069539;28;20024;-72
2024/03/01 09:40:37;;;;;;;13.80;8.52;;;;;;;-146.27;81.42;44929.50;5069696;28;20100;-71
2024/03/01 09:43:34;;;;;;;20.73;9.02;;;;;;;-146.27;81.41;44919.56;5069518;28;20029;-72
2024/03/01 09:46:34;;;;;;;17.73;8.45;;;;;;;-146.27;81.19;44975.28;5047161;28;20037;-73
2024/03/01 09:49:12;;;;;;;11.57;8.15;;;;;;;-146.27;81.06;44941.44;5063815;28;20036;-72
2024/03/01 09:52:08;;;;;;;9.73;7.38;;;;;;;-146.27;81.43;44923.53;5059132;28;20106;-73
2024/03/01 09:54:42;;;;;;;17.20;8.75;;;;;;;-146.27;81.12;44871.81;5068638;28;20024;-72
2024/03/01 09:57:10;;;;;;;13.60;8.50;;;;;;;-146.27;80.58;44871.81;5068639;28;20066;-72
2024/03/01 09:59:51;;;;;;;9.60;7.63;;;;;;;-146.27;80.40;44877.78;5067657;28;20568;-71
2024/03/01 10:02:46;;;;;;;10.82;6.70;;;;;;;-146.27;79.14;44859.88;5069205;28;20028;-73
2024/03/01 10:05:51;;;;;;;8.40;5.70;;;;;;;-146.27;78.23;45027.03;5067588;28;20033;-72
2024/03/01 10:08:32;;;;;;;10.70;4.75;;;;;;;-146.27;77.26;45040.94;5048004;28;20049;-72
2024/03/01 10:11:12;;;;;;;11.23;4.25;;;;;;;-146.27;76.74;44973.28;5051488;28;20452;-71
2024/03/01 10:13:48;;;;;;;9.40;3.90;;;;;;;-146.27;74.91;45126.53;5063792;28;20897;-73
2024/03/01 10:16:45;;;;;;;6.80;4.15;;;;;;;-146.27;74.63;44995.19;5072165;28;20025;-71
2024/03/01 10:19:24;;;;;;;7.35;4.35;;;;;;;-146.27;73.10;44973.28;5068145;28;20101;-72
2024/03/01 10:22:13;;;;;;;9.68;4.90;;;;;;;-146.27;74.00;45013.09;5059428;28;20543;-73
2024/03/01 10:24:55;;;;;;;7.38;4.10;;;;;;;-146.27;72.90;44955.38;5067017;28;20089;-72
2024/03/01 10:27:41;;;;;;;5.60;3.70;;;;;;;-146.27;72.71;44901.66;5071897;28;20048;-73
2024/03/01 10:30:30;;;;;;;13.77;4.32;;;;;;;-146.27;70.94;44883.75;5072643;28;20524;-72
2024/03/01 10:33:14;;;;;;;9.82;4.03;;;;;;;-146.27;nan;44987.22;5072564;28;20027;-72
2024/03/01 10:36:07;;;;;;;10.07;3.80;;;;;;;-146.27;69.63;44979.25;5072870;28;20576;-72
2024/03/01 10:38:42;;;;;;;6.68;4.28;;;;;;;-146.27;67.41;44923.53;5072389;28;20358;-72
2024/03/01 10:41:17;;;;;;;12.55;4.60;;;;;;;-146.27;68.63;44991.19;5072596;28;20032;-72
2024/03/01 10:43:58;;;;;;;5.78;3.03;;;;;;;-146.27;66.73;45066.81;5072326;28;20028;-72
2024/03/01 10:46:52;;;;;;;10.65;2.88;;;;;;;-146.27;65.96;45098.66;5072037;28;20029;-72
2024/03/01 10:49:43;;;;;;;;;;;;;;;-146.27;64.01;45090.72;5069396;28;20119;-73
2024/03/01 10:52:14;;;;;;;6.30;2.70;;;;;;;-146.27;63.90;45170.31;5054892;28;20373;-73
2024/03/01 10:54:44;;;;;;;9.48;3.17;;;;;;;-146.27;63.14;45190.22;5071713;28;20020;-73
2024/03/01 10:57:16;;;;;;;3.45;2.03;;;;;;;-146.27;62.82;45060.84;5070779;28;20031;-74
2024/03/01 10:59:51;;;;;;;3.17;1.67;;;;;;;-146.27;62.68;45098.66;5070989;28;20044;-73
2024/03/01 11:02:24;;;;;;;6.80;2.20;;;;;;;-146.27;63.07;45104.63;5071482;28;20035;-73
2024/03/01 11:05:06;;;;;;;8.65;2.30;;;;;;;-146.27;60.72;45090.72;5070845;28;20036;-73
2024/03/01 11:07:56;;;;;;;7.00;2.35;;;;;;;-146.27;60.02;45066.81;5070442;28;20032;-73
2024/03/01 11:10:30;;;;;;;4.45;2.15;;;;;;;-146.27;59.87;45168.31;5059625;28;20031;-73
2024/03/01 11:13:06;;;;;;;7.82;2.38;;;;;;;-146.27;59.27;45206.13;5070410;28;20384;-73
2024/03/01 11:15:34;;;;;;;4.25;2.08;;;;;;;-146.27;58.39;45198.16;5070461;28;20029;-73
2024/03/01 11:18:04;;;;;;;5.80;1.80;;;;;;;-146.27;59.10;45062.84;5063065;28;20036;-74
2024/03/01 11:20:36;;;;;;;3.70;1.60;;;;;;;-146.27;58.42;45210.09;5059234;28;20115;-73
2024/03/01 11:23:11;;;;;;;4.30;1.60;;;;;;;-146.27;57.16;45112.59;5070940;28;20105;-73